Time;durP1;ratioP1;P1;durP2;ratioP2;P2;SDS_P1;SDS_P2;PMS_P1;PMS_P2;Temp;Humidity;BMP_temperature;BMP_pressure;BME280_temperature;BME280_humidity;BME280_pressure;Samples;Min_cycle;Max_cycle;Signal;HPM_P1;HPM_P2
2022/01/22 00:00:36;;;;;;;6.97;3.43;;;2.60;99.90;;;;;;4169180;28;20880;-76
2022/01/22 00:02:38;;;;;;;6.90;3.80;;;2.60;99.90;;;;;;4167608;28;20511;-75
2022/01/22 00:04:40;;;;;;;6.33;3.43;;;2.60;99.90;;;;;;4168583;28;20479;-76
2022/01/22 00:06:42;;;;;;;6.17;3.43;;;2.70;99.90;;;;;;4174853;28;20962;-76
2022/01/22 00:08:44;;;;;;;5.50;3.23;;;2.70;99.90;;;;;;4167250;28;20538;-76
2022/01/22 00:10:45;;;;;;;4.93;3.00;;;2.70;99.90;;;;;;4168054;28;20477;-76
2022/01/22 00:14:23;;;;;;;6.13;3.50;;;2.70;99.90;;;;;;4165386;28;20520;-76
2022/01/22 00:15:31;;;;;;;4.70;2.80;;;2.70;99.90;;;;;;4164323;28;20465;-76
2022/01/22 00:17:33;;;;;;;5.13;2.90;;;2.80;99.90;;;;;;4172947;28;20531;-76
2022/01/22 00:19:35;;;;;;;4.63;2.80;;;2.80;99.90;;;;;;4166291;28;20838;-76
2022/01/22 00:21:36;;;;;;;4.20;2.80;;;2.80;99.90;;;;;;4164168;28;20488;-76
2022/01/22 00:23:43;;;;;;;5.03;3.00;;;2.80;99.90;;;;;;4226046;22;20500;-80
2022/01/22 00:25:45;;;;;;;5.47;2.73;;;2.90;99.90;;;;;;4183170;28;21007;-80
2022/01/22 00:27:50;;;;;;;4.67;2.90;;;2.90;99.90;;;;;;4181353;28;20453;-80
2022/01/22 00:29:51;;;;;;;4.67;2.60;;;2.90;99.90;;;;;;4174219;28;20571;-80
2022/01/22 00:31:53;;;;;;;4.13;2.67;;;2.90;99.90;;;;;;4174027;28;20472;-81
2022/01/22 00:33:55;;;;;;;3.90;2.20;;;2.90;99.90;;;;;;4182576;28;20473;-81
2022/01/22 00:35:56;;;;;;;4.77;2.80;;;3.00;99.90;;;;;;4182471;28;20487;-81
2022/01/22 00:38:01;;;;;;;4.57;2.87;;;3.00;99.90;;;;;;4177249;28;20493;-78
2022/01/22 00:40:04;;;;;;;3.73;2.37;;;3.00;99.90;;;;;;4180141;28;20457;-81
2022/01/22 00:42:12;;;;;;;3.93;2.43;;;3.00;99.90;;;;;;4183218;28;20544;-80
2022/01/22 00:44:15;;;;;;;3.93;2.67;;;3.00;99.90;;;;;;4182520;28;20820;-80
2022/01/22 00:46:17;;;;;;;6.80;2.70;;;3.00;99.90;;;;;;4181562;28;20480;-78
2022/01/22 00:48:19;;;;;;;4.20;2.60;;;3.10;99.90;;;;;;4174753;28;20501;-81
2022/01/22 00:50:23;;;;;;;4.63;2.80;;;3.10;99.90;;;;;;4182418;28;20457;-78
2022/01/22 00:52:25;;;;;;;3.50;2.50;;;3.10;99.90;;;;;;4182235;28;20559;-81
2022/01/22 00:54:27;;;;;;;4.63;2.90;;;3.10;99.90;;;;;;4182069;28;20453;-81
2022/01/22 00:56:28;;;;;;;4.40;2.80;;;3.10;99.90;;;;;;4178709;28;20487;-78
2022/01/22 00:58:30;;;;;;;5.90;2.67;;;3.10;99.90;;;;;;4181893;28;20496;-78
2022/01/22 01:00:33;;;;;;;3.90;2.50;;;3.10;99.90;;;;;;4180781;28;20514;-80
2022/01/22 01:02:36;;;;;;;4.83;2.87;;;3.10;99.90;;;;;;4180827;28;20989;-79
2022/01/22 01:04:38;;;;;;;4.47;2.67;;;3.10;99.90;;;;;;4180155;28;20503;-79
2022/01/22 01:06:40;;;;;;;4.20;2.50;;;3.10;99.90;;;;;;4178733;28;20834;-79
2022/01/22 01:08:43;;;;;;;4.13;2.70;;;3.20;99.90;;;;;;4180879;28;20484;-80
2022/01/22 01:10:45;;;;;;;4.13;2.80;;;3.20;99.90;;;;;;4180926;28;20460;-79
2022/01/22 01:12:48;;;;;;;4.53;2.97;;;3.20;99.90;;;;;;4180809;28;20489;-82
2022/01/22 01:15:05;;;;;;;4.87;3.00;;;3.20;99.90;;;;;;4179547;28;20479;-79
2022/01/22 01:17:24;;;;;;;3.83;2.73;;;3.20;99.90;;;;;;4180879;28;20488;-81
2022/01/22 01:33:29;;;;;;;4.00;2.40;;;3.30;99.90;;;;;;4180890;28;20458;-77
2022/01/22 01:35:33;;;;;;;4.27;2.63;;;3.30;99.90;;;;;;4177251;28;20492;-80
2022/01/22 01:37:35;;;;;;;4.37;2.83;;;3.30;99.90;;;;;;4179984;28;20484;-79
2022/01/22 01:39:38;;;;;;;4.23;2.87;;;3.30;99.90;;;;;;4180025;28;20506;-79
2022/01/22 01:41:48;;;;;;;4.50;2.70;;;3.40;99.90;;;;;;4180707;28;20465;-80
2022/01/22 01:43:51;;;;;;;4.10;2.70;;;3.40;99.90;;;;;;4177738;28;21020;-80
2022/01/22 01:45:52;;;;;;;4.80;2.83;;;3.40;99.90;;;;;;4164116;28;20536;-81
2022/01/22 01:47:56;;;;;;;4.20;2.60;;;3.40;99.90;;;;;;4170082;28;20909;-81
2022/01/22 01:49:59;;;;;;;5.37;3.23;;;3.40;99.90;;;;;;4179326;28;20867;-81
2022/01/22 01:52:03;;;;;;;4.50;2.67;;;3.40;99.90;;;;;;4180045;28;20441;-76
2022/01/22 01:54:23;;;;;;;4.17;2.80;;;3.50;99.90;;;;;;4179192;28;20886;-81
2022/01/22 01:58:44;;;;;;;4.67;2.77;;;3.50;99.90;;;;;;4179874;28;20496;-77
2022/01/22 02:00:46;;;;;;;6.70;3.80;;;3.50;99.90;;;;;;4179184;28;20444;-77
2022/01/22 02:02:48;;;;;;;6.23;3.57;;;3.50;99.90;;;;;;4170182;28;20489;-79
2022/01/22 02:04:50;;;;;;;5.43;3.37;;;3.50;99.90;;;;;;4178289;28;20510;-79
2022/01/22 02:06:55;;;;;;;8.03;3.40;;;3.60;99.90;;;;;;4167465;28;20472;-79
2022/01/22 02:08:57;;;;;;;6.40;3.60;;;3.60;99.90;;;;;;4179611;28;20488;-81
2022/01/22 02:11:00;;;;;;;5.80;3.70;;;3.60;99.90;;;;;;4176082;28;20462;-79
2022/01/22 02:24:44;;;;;;;11.83;6.00;;;3.80;99.90;;;;;;4164362;28;20479;-79
2022/01/22 02:26:48;;;;;;;13.13;6.53;;;3.90;99.90;;;;;;4166698;28;20473;-81
2022/01/22 02:28:51;;;;;;;12.23;6.30;;;4.10;99.90;;;;;;4162849;28;20461;-80
2022/01/22 02:31:00;;;;;;;14.47;7.23;;;4.10;99.90;;;;;;4178830;28;20460;-76
2022/01/22 02:33:13;;;;;;;12.83;7.13;;;4.00;99.90;;;;;;4179613;28;20472;-81
2022/01/22 02:35:23;;;;;;;11.20;6.03;;;4.00;99.90;;;;;;4175443;28;20472;-79
2022/01/22 02:37:32;;;;;;;15.13;7.27;;;4.10;99.90;;;;;;4163485;28;21028;-79
2022/01/22 02:39:39;;;;;;;11.67;6.33;;;4.20;99.90;;;;;;4165614;28;20445;-79
2022/01/22 02:41:46;;;;;;;10.47;5.87;;;4.20;99.90;;;;;;4179472;28;20504;-79
2022/01/22 02:43:48;;;;;;;13.93;6.47;;;4.30;99.90;;;;;;4169625;28;20491;-79
2022/01/22 02:45:50;;;;;;;11.27;6.10;;;4.30;99.90;;;;;;4162538;28;20450;-81
2022/01/22 02:47:53;;;;;;;12.97;6.40;;;4.30;99.90;;;;;;4164548;28;20934;-80
2022/01/22 02:49:55;;;;;;;10.37;5.97;;;4.40;99.90;;;;;;4169056;28;20460;-79
2022/01/22 02:51:59;;;;;;;10.37;5.97;;;4.40;99.90;;;;;;4182522;28;20517;-79
2022/01/22 02:54:03;;;;;;;11.17;6.03;;;4.40;99.90;;;;;;4168541;28;20819;-79
2022/01/22 02:56:06;;;;;;;12.10;5.70;;;4.40;99.90;;;;;;4176848;28;20477;-80
2022/01/22 02:58:08;;;;;;;11.70;5.27;;;4.40;99.90;;;;;;4175968;28;20914;-79
2022/01/22 03:00:13;;;;;;;11.37;5.37;;;4.50;99.90;;;;;;4166653;28;20469;-79
2022/01/22 03:02:14;;;;;;;10.53;5.07;;;4.50;99.90;;;;;;4176556;28;20461;-79
2022/01/22 03:04:16;;;;;;;7.83;4.60;;;4.50;99.90;;;;;;4166652;28;20473;-80
2022/01/22 03:06:18;;;;;;;11.53;5.40;;;4.50;99.90;;;;;;4184475;28;20461;-79
2022/01/22 03:08:24;;;;;;;10.10;5.30;;;4.60;99.90;;;;;;4185118;28;20827;-80
2022/01/22 03:10:29;;;;;;;10.23;5.30;;;4.70;99.90;;;;;;4181667;28;20465;-79
2022/01/22 03:12:49;;;;;;;8.60;4.30;;;4.60;99.90;;;;;;4180736;28;20564;-80
2022/01/22 03:15:29;;;;;;;12.73;4.97;;;4.60;99.90;;;;;;4166355;28;20489;-79
2022/01/22 03:17:35;;;;;;;8.30;4.60;;;4.60;99.90;;;;;;4165019;28;20584;-80
2022/01/22 03:19:59;;;;;;;7.50;4.07;;;4.60;99.90;;;;;;4174848;28;20546;-80
2022/01/22 03:22:16;;;;;;;9.37;4.63;;;4.60;99.90;;;;;;4178425;28;20457;-80
2022/01/22 03:29:01;;;;;;;7.50;3.80;;;4.60;99.90;;;;;;4176289;28;20445;-80
2022/01/22 03:31:02;;;;;;;9.93;4.13;;;4.60;99.90;;;;;;4182255;28;20488;-79
2022/01/22 03:33:07;;;;;;;6.03;3.30;;;4.70;99.90;;;;;;4178713;28;20558;-80
2022/01/22 03:35:12;;;;;;;6.47;3.37;;;4.70;99.90;;;;;;4177559;28;20823;-79
2022/01/22 03:37:14;;;;;;;4.13;2.40;;;4.70;99.90;;;;;;4181612;28;20514;-79
2022/01/22 03:39:17;;;;;;;4.43;2.17;;;4.70;99.90;;;;;;4181568;28;20516;-79
2022/01/22 03:41:18;;;;;;;3.10;1.77;;;4.70;99.90;;;;;;4180525;28;20874;-79
2022/01/22 03:43:22;;;;;;;2.80;1.70;;;4.70;99.90;;;;;;4180149;28;20531;-79
2022/01/22 03:45:26;;;;;;;2.93;1.47;;;4.60;99.90;;;;;;4181150;28;20546;-80
2022/01/22 03:47:27;;;;;;;2.47;1.43;;;4.60;99.90;;;;;;4182047;28;20460;-79
2022/01/22 03:49:29;;;;;;;2.30;1.50;;;4.60;99.90;;;;;;4182068;28;20875;-79
2022/01/22 03:51:31;;;;;;;2.37;1.40;;;4.50;99.90;;;;;;4180957;28;20832;-79
2022/01/22 03:53:33;;;;;;;2.10;1.50;;;4.60;99.90;;;;;;4179562;28;20489;-83
2022/01/22 03:55:45;;;;;;;2.70;1.47;;;4.60;99.90;;;;;;4184444;28;20527;-81
2022/01/22 03:57:47;;;;;;;2.70;1.50;;;4.60;99.90;;;;;;4180351;28;20910;-78
2022/01/22 03:59:51;;;;;;;3.90;1.40;;;4.60;99.90;;;;;;4180841;28;20519;-78
2022/01/22 04:02:24;;;;;;;2.17;1.23;;;4.50;99.90;;;;;;4179232;28;20477;-78
2022/01/22 04:04:31;;;;;;;1.47;1.13;;;4.50;99.90;;;;;;4180630;28;20824;-78
2022/01/22 04:08:52;;;;;;;3.53;0.93;;;4.50;99.90;;;;;;4158035;28;20506;-78
2022/01/22 04:10:54;;;;;;;1.70;1.00;;;4.50;99.90;;;;;;4180653;28;20545;-78
2022/01/22 04:13:01;;;;;;;1.10;0.80;;;4.50;99.90;;;;;;4171966;28;20481;-78
2022/01/22 04:15:06;;;;;;;1.93;1.10;;;4.50;99.90;;;;;;4180268;28;20468;-77
2022/01/22 04:17:20;;;;;;;2.57;1.20;;;4.50;99.90;;;;;;4181531;28;20453;-78
2022/01/22 04:26:25;;;;;;;4.30;1.47;;;4.50;99.90;;;;;;4148549;28;20815;-80
2022/01/22 04:28:26;;;;;;;2.87;1.20;;;4.50;99.90;;;;;;4179424;28;20472;-78
2022/01/22 04:30:30;;;;;;;2.83;1.60;;;4.40;99.90;;;;;;4180874;28;20908;-79
2022/01/22 04:32:32;;;;;;;3.17;1.77;;;4.40;99.90;;;;;;4181266;28;20535;-77
2022/01/22 04:34:34;;;;;;;2.40;1.30;;;4.40;99.90;;;;;;4180318;28;20464;-79
2022/01/22 04:36:37;;;;;;;2.50;1.43;;;4.40;99.90;;;;;;4180809;28;20527;-78
2022/01/22 04:38:39;;;;;;;2.83;1.77;;;4.40;99.90;;;;;;4177822;28;21089;-80
2022/01/22 04:40:53;;;;;;;2.90;1.80;;;4.40;99.90;;;;;;4175754;28;20472;-81
2022/01/22 04:42:55;;;;;;;4.03;1.80;;;4.40;99.90;;;;;;4179783;28;20480;-79
2022/01/22 04:45:02;;;;;;;2.70;1.83;;;4.20;99.90;;;;;;4179196;28;20969;-79
2022/01/22 04:47:18;;;;;;;2.47;1.50;;;4.30;99.90;;;;;;4175486;28;20505;-78
2022/01/22 04:56:18;;;;;;;1.70;1.00;;;4.20;99.90;;;;;;4174889;28;20511;-78
2022/01/22 04:58:19;;;;;;;2.37;1.37;;;4.10;99.90;;;;;;4180806;28;20491;-79
2022/01/22 05:00:21;;;;;;;3.33;1.53;;;4.10;99.90;;;;;;4177866;28;20453;-80
2022/01/22 05:02:25;;;;;;;2.97;1.37;;;4.00;99.90;;;;;;4164481;28;20458;-79
2022/01/22 05:04:26;;;;;;;2.23;1.30;;;4.00;99.90;;;;;;4166225;28;20831;-80
2022/01/22 05:06:29;;;;;;;2.50;1.33;;;4.00;99.90;;;;;;4178941;28;20472;-78
2022/01/22 05:08:31;;;;;;;3.03;1.60;;;3.90;99.90;;;;;;4180556;28;20926;-79
2022/01/22 05:10:33;;;;;;;2.77;1.30;;;4.00;99.90;;;;;;4179011;28;20472;-78
2022/01/22 05:12:35;;;;;;;2.50;1.17;;;3.90;99.90;;;;;;4180110;28;20473;-80
2022/01/22 05:14:36;;;;;;;1.60;1.10;;;3.90;99.90;;;;;;4173506;28;20461;-80
2022/01/22 05:16:38;;;;;;;2.43;1.40;;;3.90;99.90;;;;;;4179604;28;20464;-79
2022/01/22 05:18:49;;;;;;;2.87;1.37;;;3.90;99.90;;;;;;4173315;28;20503;-79
2022/01/22 05:20:59;;;;;;;1.70;1.03;;;3.90;99.90;;;;;;4177552;28;20548;-79
2022/01/22 05:23:07;;;;;;;2.33;1.40;;;3.90;99.90;;;;;;4176423;28;20547;-79
2022/01/22 05:25:18;;;;;;;3.33;1.40;;;3.90;99.90;;;;;;4177877;28;20471;-80
2022/01/22 05:27:39;;;;;;;2.67;1.10;;;3.90;99.90;;;;;;4179657;28;20491;-80
2022/01/22 05:37:01;;;;;;;2.03;1.20;;;3.80;99.90;;;;;;4180498;28;20789;-79
2022/01/22 05:39:07;;;;;;;3.00;1.03;;;3.80;99.90;;;;;;4177547;28;21195;-78
2022/01/22 05:41:09;;;;;;;4.43;1.30;;;3.80;99.90;;;;;;4181201;28;20865;-78
2022/01/22 05:43:11;;;;;;;3.10;1.43;;;3.80;99.90;;;;;;4180072;28;20481;-79
2022/01/22 05:45:12;;;;;;;4.00;1.50;;;3.80;99.90;;;;;;4179072;28;20484;-78
2022/01/22 05:47:20;;;;;;;2.60;1.20;;;3.70;99.90;;;;;;4180086;28;20460;-81
2022/01/22 05:49:26;;;;;;;2.50;1.57;;;3.70;99.90;;;;;;4179521;28;21005;-78
2022/01/22 05:51:27;;;;;;;3.63;1.80;;;3.70;99.90;;;;;;4180464;28;20568;-79
2022/01/22 05:53:41;;;;;;;2.50;1.47;;;3.70;99.90;;;;;;4178318;28;20473;-78
2022/01/22 06:00:18;;;;;;;2.73;1.40;;;3.70;99.90;;;;;;4163595;28;20440;-78
2022/01/22 06:02:20;;;;;;;3.77;1.50;;;3.70;99.90;;;;;;4179647;28;20465;-78
2022/01/22 06:04:23;;;;;;;1.70;1.10;;;3.60;99.90;;;;;;4178929;28;20945;-78
2022/01/22 06:06:25;;;;;;;2.67;1.40;;;3.70;99.90;;;;;;4175739;28;20457;-80
2022/01/22 06:08:30;;;;;;;6.87;1.70;;;3.70;99.90;;;;;;4180040;28;20491;-80
2022/01/22 06:10:33;;;;;;;2.27;1.40;;;3.60;99.90;;;;;;4179847;28;20828;-79
2022/01/22 06:12:44;;;;;;;3.67;1.40;;;3.60;99.90;;;;;;4180815;28;20564;-77
2022/01/22 06:14:46;;;;;;;4.73;1.47;;;3.60;99.90;;;;;;4178868;28;20460;-80
2022/01/22 06:16:47;;;;;;;2.20;1.30;;;3.60;99.90;;;;;;4181471;28;20472;-78
2022/01/22 06:18:50;;;;;;;2.53;1.43;;;3.60;99.90;;;;;;4180954;28;20488;-78
2022/01/22 06:20:53;;;;;;;7.33;1.50;;;3.60;99.90;;;;;;4181508;28;20514;-78
2022/01/22 06:22:55;;;;;;;2.80;1.30;;;3.60;99.90;;;;;;4206791;22;20496;-77
2022/01/22 06:24:57;;;;;;;4.70;1.83;;;3.60;99.90;;;;;;4182203;28;20650;-78
2022/01/22 06:26:59;;;;;;;2.43;1.40;;;3.60;99.90;;;;;;4178303;28;20476;-77
2022/01/22 06:29:01;;;;;;;3.20;1.67;;;3.60;99.90;;;;;;4185507;28;20449;-77
2022/01/22 06:31:03;;;;;;;2.60;1.50;;;3.60;99.90;;;;;;4185936;28;20487;-78
2022/01/22 06:33:05;;;;;;;6.20;2.20;;;4.00;99.90;;;;;;4185280;28;20484;-77
2022/01/22 06:35:08;;;;;;;3.83;1.70;;;3.70;99.90;;;;;;4180213;28;20452;-77
2022/01/22 06:37:11;;;;;;;2.40;1.50;;;3.60;99.90;;;;;;4175615;28;20482;-78
2022/01/22 06:39:15;;;;;;;3.17;1.70;;;3.60;99.90;;;;;;4182778;28;21004;-79
2022/01/22 06:43:36;;;;;;;6.20;2.30;;;3.60;99.90;;;;;;4180927;28;20519;-79
2022/01/22 06:45:40;;;;;;;3.87;2.33;;;3.60;99.90;;;;;;4174799;28;20547;-78
2022/01/22 06:47:42;;;;;;;4.93;2.40;;;3.60;99.90;;;;;;4165857;28;20541;-77
2022/01/22 06:49:44;;;;;;;5.53;2.50;;;3.60;99.90;;;;;;4166380;28;20457;-78
2022/01/22 06:51:46;;;;;;;6.00;2.47;;;3.60;99.90;;;;;;4173394;28;20476;-78
2022/01/22 06:53:50;;;;;;;5.17;2.27;;;3.60;99.90;;;;;;4169603;28;20492;-78
2022/01/22 06:55:56;;;;;;;6.30;2.73;;;3.60;99.90;;;;;;4181193;28;20469;-78
2022/01/22 06:57:58;;;;;;;5.40;2.90;;;3.60;99.90;;;;;;4182055;28;20477;-78
2022/01/22 07:00:00;;;;;;;5.93;3.37;;;3.60;99.90;;;;;;4176269;28;21020;-79
2022/01/22 07:02:03;;;;;;;7.53;3.60;;;3.60;99.90;;;;;;4175124;28;20966;-79
2022/01/22 07:04:05;;;;;;;5.27;2.73;;;3.60;99.90;;;;;;4165358;28;20555;-79
2022/01/22 07:06:07;;;;;;;6.77;3.13;;;3.60;99.90;;;;;;4174501;28;20860;-77
2022/01/22 07:08:09;;;;;;;5.80;3.40;;;3.70;99.90;;;;;;4175363;28;20468;-77
2022/01/22 07:10:12;;;;;;;6.67;3.00;;;3.80;99.90;;;;;;4168810;28;20464;-78
2022/01/22 07:12:14;;;;;;;7.23;3.27;;;3.70;99.90;;;;;;4180892;28;20847;-77
2022/01/22 07:14:16;;;;;;;6.97;3.50;;;4.30;99.90;;;;;;4177102;28;21076;-78
2022/01/22 07:16:20;;;;;;;7.97;3.07;;;3.70;99.90;;;;;;4177956;28;20496;-77
2022/01/22 07:18:28;;;;;;;8.03;3.40;;;3.70;99.90;;;;;;4165248;28;20839;-77
2022/01/22 07:20:33;;;;;;;5.83;3.07;;;3.70;99.90;;;;;;4165323;28;21013;-77
2022/01/22 07:22:40;;;;;;;7.13;3.40;;;3.70;99.90;;;;;;4175563;28;20502;-78
2022/01/22 07:24:42;;;;;;;6.30;3.00;;;3.80;99.90;;;;;;4181592;28;20755;-78
2022/01/22 07:26:45;;;;;;;7.30;3.30;;;3.70;99.90;;;;;;4182737;28;20892;-77
2022/01/22 07:28:47;;;;;;;4.83;2.60;;;3.70;99.90;;;;;;4178144;28;20452;-78
2022/01/22 07:30:48;;;;;;;5.00;2.50;;;3.70;99.90;;;;;;4174649;28;20474;-79
2022/01/22 07:32:50;;;;;;;7.63;2.87;;;4.00;99.90;;;;;;4165299;28;20477;-78
2022/01/22 07:34:52;;;;;;;6.30;3.10;;;3.80;99.90;;;;;;4163978;28;20457;-78
2022/01/22 07:36:54;;;;;;;5.47;2.73;;;4.10;99.90;;;;;;4171265;28;20828;-78
2022/01/22 07:38:55;;;;;;;5.70;3.00;;;3.70;99.90;;;;;;4184109;28;20457;-79
2022/01/22 07:40:57;;;;;;;7.87;3.07;;;3.80;99.90;;;;;;4172746;28;20872;-77
2022/01/22 07:43:00;;;;;;;6.40;2.93;;;4.20;99.90;;;;;;4179135;28;20518;-79
2022/01/22 07:45:03;;;;;;;6.07;2.67;;;3.80;99.90;;;;;;4178855;28;20893;-78
2022/01/22 07:47:08;;;;;;;8.77;3.20;;;3.80;99.90;;;;;;4181396;28;20460;-78
2022/01/22 07:49:10;;;;;;;7.43;3.30;;;3.80;99.90;;;;;;4169939;28;20853;-79
2022/01/22 07:51:12;;;;;;;5.80;2.97;;;3.80;99.90;;;;;;4180800;28;20515;-78
2022/01/22 07:53:14;;;;;;;8.97;3.33;;;3.80;99.90;;;;;;4181362;28;20914;-78
2022/01/22 07:55:19;;;;;;;6.40;2.90;;;3.90;99.90;;;;;;4172714;28;20950;-78
2022/01/22 07:57:21;;;;;;;7.30;3.53;;;3.80;99.90;;;;;;4173882;28;20461;-77
2022/01/22 07:59:24;;;;;;;12.33;4.10;;;3.90;99.90;;;;;;4180909;28;20493;-77
2022/01/22 08:01:25;;;;;;;10.07;3.40;;;3.90;99.90;;;;;;4186412;28;20456;-77
2022/01/22 08:03:28;;;;;;;8.30;3.83;;;3.90;99.90;;;;;;4176054;28;20538;-77
2022/01/22 08:05:30;;;;;;;8.47;3.63;;;3.80;99.90;;;;;;4168163;28;20489;-77
2022/01/22 08:07:32;;;;;;;8.83;3.67;;;3.90;99.90;;;;;;4179423;28;20493;-78
2022/01/22 08:09:34;;;;;;;9.20;3.90;;;3.90;99.90;;;;;;4180470;28;21273;-77
2022/01/22 08:11:36;;;;;;;8.13;3.57;;;3.90;99.90;;;;;;4191521;28;20480;-78
2022/01/22 08:13:38;;;;;;;8.07;3.67;;;3.90;99.90;;;;;;4185197;28;20540;-79
2022/01/22 08:15:41;;;;;;;6.70;3.33;;;3.90;99.90;;;;;;4187226;28;20464;-78
2022/01/22 08:17:43;;;;;;;8.60;3.70;;;3.90;99.90;;;;;;4194482;28;20457;-77
2022/01/22 08:19:46;;;;;;;5.63;3.00;;;4.00;99.90;;;;;;4190530;28;20480;-78
2022/01/22 08:21:48;;;;;;;7.77;2.97;;;4.00;99.90;;;;;;4180349;28;20905;-78
2022/01/22 08:23:50;;;;;;;7.93;3.33;;;4.00;99.90;;;;;;4180452;28;20497;-78
2022/01/22 08:25:52;;;;;;;11.13;3.40;;;4.00;99.90;;;;;;4179839;28;20506;-78
2022/01/22 08:30:14;;;;;;;8.33;3.90;;;4.00;99.90;;;;;;4177146;28;20444;-78
2022/01/22 08:32:35;;;;;;;7.63;3.20;;;4.10;99.90;;;;;;4180348;28;20502;-78
2022/01/22 08:36:56;;;;;;;11.60;3.80;;;4.10;99.90;;;;;;4176686;28;20479;-78
2022/01/22 08:38:58;;;;;;;8.10;3.80;;;4.10;99.90;;;;;;4178985;28;20896;-78
2022/01/22 08:41:00;;;;;;;9.27;3.53;;;4.10;99.90;;;;;;4177844;28;20546;-78
2022/01/22 08:43:02;;;;;;;11.13;3.83;;;4.10;99.90;;;;;;4179988;28;20489;-77
2022/01/22 08:45:04;;;;;;;9.80;3.67;;;4.20;99.90;;;;;;4176880;28;20808;-78
2022/01/22 08:47:07;;;;;;;7.20;3.50;;;4.20;99.90;;;;;;4178744;28;20507;-78
2022/01/22 08:49:11;;;;;;;9.97;3.70;;;4.20;99.90;;;;;;4177860;28;20465;-78
2022/01/22 08:51:13;;;;;;;12.97;4.00;;;4.20;99.90;;;;;;4180157;28;20507;-78
2022/01/22 08:53:15;;;;;;;9.33;3.63;;;4.20;99.90;;;;;;4177944;28;20512;-78
2022/01/22 08:55:18;;;;;;;5.83;3.67;;;4.20;99.90;;;;;;4169026;28;20461;-78
2022/01/22 08:57:20;;;;;;;7.63;3.80;;;4.30;99.90;;;;;;4173464;28;20461;-75
2022/01/22 08:59:22;;;;;;;8.40;3.97;;;4.30;99.90;;;;;;4174444;28;20469;-78
2022/01/22 09:01:26;;;;;;;7.40;3.53;;;4.30;99.90;;;;;;4171752;28;20464;-77
2022/01/22 09:03:28;;;;;;;6.83;3.40;;;4.40;99.90;;;;;;4170186;28;20520;-78
2022/01/22 09:05:35;;;;;;;7.67;3.33;;;4.30;99.90;;;;;;4172993;28;20457;-78
2022/01/22 09:07:37;;;;;;;10.63;4.30;;;4.30;99.90;;;;;;4171350;28;20467;-77
2022/01/22 09:09:39;;;;;;;6.17;3.33;;;4.30;99.90;;;;;;4174153;28;20515;-78
2022/01/22 09:11:43;;;;;;;5.57;3.20;;;4.60;99.90;;;;;;4177045;28;20922;-78
2022/01/22 09:13:45;;;;;;;7.73;3.33;;;4.30;99.90;;;;;;4175446;28;20484;-77
2022/01/22 09:15:47;;;;;;;9.50;3.90;;;4.30;99.90;;;;;;4171319;28;20478;-78
2022/01/22 09:17:48;;;;;;;9.57;4.43;;;4.40;99.90;;;;;;4172794;28;20457;-77
2022/01/22 09:19:56;;;;;;;8.97;3.80;;;4.30;99.90;;;;;;4171665;28;20994;-78
2022/01/22 09:22:02;;;;;;;8.20;3.70;;;4.40;99.90;;;;;;4171936;28;20840;-77
2022/01/22 09:24:04;;;;;;;8.33;3.80;;;4.40;99.90;;;;;;4169788;28;21072;-77
2022/01/22 09:26:06;;;;;;;6.57;3.97;;;4.40;99.90;;;;;;4174063;28;20469;-77
2022/01/22 09:28:11;;;;;;;7.67;4.03;;;4.40;99.90;;;;;;4169547;28;20460;-77
2022/01/22 09:30:13;;;;;;;10.67;3.83;;;4.40;99.90;;;;;;4170067;28;20465;-77
2022/01/22 09:32:17;;;;;;;8.70;3.77;;;4.40;99.90;;;;;;4169582;28;20476;-78
2022/01/22 09:34:19;;;;;;;7.27;3.50;;;4.50;99.90;;;;;;4169805;28;20983;-77
2022/01/22 09:36:21;;;;;;;7.93;4.13;;;4.50;99.90;;;;;;4170010;28;20458;-77
2022/01/22 09:38:24;;;;;;;12.37;4.07;;;4.50;99.90;;;;;;4171856;28;20453;-78
2022/01/22 09:40:26;;;;;;;9.03;3.73;;;4.50;99.90;;;;;;4174991;28;20555;-77
2022/01/22 09:42:29;;;;;;;9.40;3.93;;;5.20;99.90;;;;;;4170554;28;20480;-76
2022/01/22 09:44:38;;;;;;;7.80;3.70;;;4.50;99.90;;;;;;4169334;28;20457;-77
2022/01/22 09:46:44;;;;;;;7.20;3.73;;;4.60;99.90;;;;;;4167597;28;20465;-77
2022/01/22 09:48:48;;;;;;;8.70;3.90;;;4.60;99.90;;;;;;4170371;28;20577;-78
2022/01/22 09:50:50;;;;;;;10.37;3.97;;;4.70;99.90;;;;;;4171386;28;20461;-77
2022/01/22 09:52:53;;;;;;;8.50;3.90;;;4.80;99.90;;;;;;4170691;28;20537;-77
2022/01/22 09:54:56;;;;;;;8.07;3.90;;;4.70;99.90;;;;;;4174189;28;20461;-77
2022/01/22 09:57:03;;;;;;;9.00;4.13;;;4.60;99.90;;;;;;4176478;28;20825;-78
2022/01/22 09:59:05;;;;;;;8.10;3.87;;;4.60;99.90;;;;;;4175050;28;20502;-77
2022/01/22 10:01:20;;;;;;;8.33;3.90;;;5.80;99.90;;;;;;4172263;28;20492;-77
2022/01/22 10:03:21;;;;;;;9.37;3.90;;;5.40;99.90;;;;;;4174887;28;20473;-78
2022/01/22 10:05:29;;;;;;;6.23;3.30;;;4.70;99.90;;;;;;4166866;28;20864;-77
2022/01/22 10:07:30;;;;;;;8.03;3.60;;;4.80;99.90;;;;;;4175802;28;20464;-77
2022/01/22 10:09:35;;;;;;;8.57;3.53;;;4.80;99.90;;;;;;4175036;28;20516;-78
2022/01/22 10:11:38;;;;;;;7.90;3.47;;;4.80;99.90;;;;;;4173028;28;20826;-78
2022/01/22 10:13:42;;;;;;;5.90;3.07;;;4.90;99.90;;;;;;4169086;28;20473;-78
2022/01/22 10:15:44;;;;;;;8.07;3.87;;;4.90;99.90;;;;;;4172707;28;20457;-77
2022/01/22 10:17:47;;;;;;;10.50;4.27;;;4.90;99.90;;;;;;4169633;28;20477;-78
2022/01/22 10:19:49;;;;;;;9.23;4.20;;;4.90;99.90;;;;;;4168669;28;20461;-77
2022/01/22 10:21:56;;;;;;;7.43;3.83;;;4.90;99.90;;;;;;4181669;28;20805;-77
2022/01/22 10:24:35;;;;;;;9.73;4.30;;;4.90;99.90;;;;;;4177631;28;20580;-77
2022/01/22 10:26:38;;;;;;;9.90;4.97;;;5.00;99.90;;;;;;4178833;28;20468;-77
2022/01/22 10:28:44;;;;;;;10.07;4.30;;;4.90;99.90;;;;;;4182453;28;20460;-77
2022/01/22 10:30:47;;;;;;;8.23;4.67;;;5.00;99.90;;;;;;4183701;28;20489;-75
2022/01/22 10:32:57;;;;;;;10.63;4.37;;;5.00;99.90;;;;;;4179595;28;20522;-78
2022/01/22 10:35:07;;;;;;;8.43;3.83;;;5.00;99.90;;;;;;4180057;28;20538;-74
2022/01/22 10:37:09;;;;;;;7.73;4.13;;;5.10;99.90;;;;;;4183675;28;20468;-76
2022/01/22 10:39:27;;;;;;;6.30;3.83;;;5.10;99.90;;;;;;4183764;28;20473;-74
2022/01/22 10:41:39;;;;;;;9.50;3.90;;;5.30;99.90;;;;;;4176731;28;20475;-74
2022/01/22 10:43:51;;;;;;;8.07;4.10;;;5.20;99.90;;;;;;4173147;28;20469;-74
2022/01/22 10:46:07;;;;;;;5.67;3.23;;;5.20;99.90;;;;;;4179649;28;20528;-75
2022/01/22 10:48:17;;;;;;;9.07;4.30;;;5.20;99.90;;;;;;4176862;28;20493;-78
2022/01/22 10:50:20;;;;;;;7.43;3.90;;;5.30;99.90;;;;;;4177459;28;20449;-77
2022/01/22 10:52:22;;;;;;;8.27;3.77;;;5.30;99.90;;;;;;4178257;28;20798;-77
2022/01/22 10:54:25;;;;;;;10.87;3.97;;;5.40;99.90;;;;;;4177385;28;20507;-77
2022/01/22 10:56:29;;;;;;;7.27;3.70;;;5.40;99.90;;;;;;4178196;28;20837;-76
2022/01/22 10:58:34;;;;;;;6.77;3.50;;;5.40;99.90;;;;;;4176986;28;20455;-75
2022/01/22 11:00:36;;;;;;;8.43;3.93;;;5.40;99.90;;;;;;4177320;28;20475;-75
2022/01/22 11:02:40;;;;;;;8.87;3.40;;;5.50;99.90;;;;;;4175375;28;20547;-74
2022/01/22 11:04:43;;;;;;;9.23;4.30;;;5.50;99.90;;;;;;4175730;28;20886;-75
2022/01/22 11:06:50;;;;;;;7.33;4.10;;;5.50;99.90;;;;;;4178513;28;20543;-75
2022/01/22 11:08:52;;;;;;;9.53;4.57;;;5.60;99.90;;;;;;4174852;28;20453;-74
2022/01/22 11:10:53;;;;;;;8.60;4.23;;;5.60;99.90;;;;;;4174787;28;20953;-75
2022/01/22 11:12:55;;;;;;;7.10;4.17;;;5.70;99.90;;;;;;4176005;28;20521;-77
2022/01/22 11:14:58;;;;;;;7.37;4.13;;;5.70;99.90;;;;;;4180286;28;20462;-76
2022/01/22 11:17:01;;;;;;;9.67;4.67;;;5.70;99.90;;;;;;4177054;28;20516;-74
2022/01/22 11:19:03;;;;;;;7.03;3.80;;;5.80;99.90;;;;;;4176695;28;20881;-76
2022/01/22 11:21:06;;;;;;;9.13;4.07;;;5.70;99.90;;;;;;4181953;28;20490;-76
2022/01/22 11:23:09;;;;;;;6.90;3.70;;;5.80;99.90;;;;;;4181616;28;20855;-78
2022/01/22 11:25:11;;;;;;;7.40;3.83;;;5.80;99.90;;;;;;4178126;28;20479;-75
2022/01/22 11:27:16;;;;;;;6.80;3.60;;;5.80;99.90;;;;;;4180571;28;20468;-76
2022/01/22 11:29:20;;;;;;;7.17;3.93;;;5.80;99.90;;;;;;4170528;28;21141;-75
2022/01/22 11:31:26;;;;;;;6.37;4.00;;;5.70;99.90;;;;;;4168196;28;20456;-74
2022/01/22 11:33:29;;;;;;;7.17;3.73;;;5.70;99.90;;;;;;4166932;28;20489;-75
2022/01/22 11:35:45;;;;;;;7.80;4.10;;;5.70;99.90;;;;;;4169234;28;20452;-74
2022/01/22 11:37:49;;;;;;;8.43;4.37;;;5.70;99.90;;;;;;4181410;28;20927;-74
2022/01/22 11:40:12;;;;;;;8.77;4.53;;;5.80;99.90;;;;;;4181000;28;20442;-74
2022/01/22 11:42:15;;;;;;;8.30;4.30;;;5.80;99.90;;;;;;4174733;28;20464;-74
2022/01/22 11:44:25;;;;;;;7.33;3.90;;;5.70;99.90;;;;;;4180616;28;20584;-76
2022/01/22 11:46:32;;;;;;;7.63;4.27;;;5.70;99.90;;;;;;4171758;28;20518;-74
2022/01/22 11:48:33;;;;;;;9.87;4.20;;;5.70;99.90;;;;;;4181032;28;20451;-75
2022/01/22 11:50:35;;;;;;;11.53;4.03;;;5.80;99.90;;;;;;4179150;28;20815;-73
2022/01/22 11:52:39;;;;;;;11.87;4.17;;;5.80;99.90;;;;;;4180883;28;20530;-76
2022/01/22 11:54:50;;;;;;;8.53;4.60;;;5.80;99.90;;;;;;4179594;28;20519;-78
2022/01/22 11:56:54;;;;;;;9.17;4.30;;;5.80;99.90;;;;;;4176316;28;20471;-75
2022/01/22 11:59:16;;;;;;;10.47;4.50;;;5.80;99.90;;;;;;4176005;28;20441;-73
2022/01/22 12:01:57;;;;;;;8.17;3.67;;;5.80;99.90;;;;;;4170118;28;20498;-75
2022/01/22 12:03:58;;;;;;;8.40;4.00;;;5.80;99.90;;;;;;4176998;28;20523;-72